createdAt,value
2017-12-23T00:00:39.080Z,1031.14
2017-12-23T00:01:48.284Z,1031.18
2017-12-23T00:02:57.068Z,1031.17
2017-12-23T00:04:06.555Z,1031.18
2017-12-23T00:05:15.540Z,1031.18
2017-12-23T00:06:25.122Z,1031.16
2017-12-23T00:07:34.332Z,1031.1
2017-12-23T00:08:43.544Z,1031.07
2017-12-23T00:09:52.759Z,1031.03
2017-12-23T00:11:01.977Z,1031.04
2017-12-23T00:12:11.170Z,1031.06
2017-12-23T00:13:20.400Z,1031.09
2017-12-23T00:14:29.452Z,1031.09
2017-12-23T00:15:38.690Z,1031.11
2017-12-23T00:16:47.957Z,1031.11
2017-12-23T00:17:57.218Z,1031.13
2017-12-23T00:19:06.450Z,1031.1
2017-12-23T00:20:15.716Z,1031.05
2017-12-23T00:21:24.436Z,1031.07
2017-12-23T00:22:33.395Z,1031.04
2017-12-23T00:23:42.902Z,1031.02
2017-12-23T00:24:51.880Z,1030.97
2017-12-23T00:26:01.349Z,1030.99
2017-12-23T00:27:11.081Z,1030.99
2017-12-23T00:28:20.284Z,1030.97
2017-12-23T00:29:29.780Z,1031
2017-12-23T00:30:38.984Z,1030.96
2017-12-23T00:31:47.933Z,1030.96
2017-12-23T00:32:56.927Z,1030.94
2017-12-23T00:34:06.145Z,1030.89
2017-12-23T00:35:15.104Z,1030.92
2017-12-23T00:36:24.299Z,1030.95
2017-12-23T00:37:33.247Z,1030.96
2017-12-23T00:38:42.203Z,1030.98
2017-12-23T00:39:51.415Z,1031.01
2017-12-23T00:41:00.435Z,1031.02
2017-12-23T00:42:09.379Z,1031.01
2017-12-23T00:43:18.582Z,1030.98
2017-12-23T00:44:27.787Z,1030.99
2017-12-23T00:45:36.480Z,1030.94
2017-12-23T00:46:45.440Z,1030.96
2017-12-23T00:47:54.400Z,1030.91
2017-12-23T00:49:03.718Z,1030.88
2017-12-23T00:50:12.403Z,1030.89
2017-12-23T00:51:21.366Z,1030.83
2017-12-23T00:52:30.307Z,1030.84
2017-12-23T00:53:39.249Z,1030.88
2017-12-23T00:54:48.211Z,1030.84
2017-12-23T00:55:57.149Z,1030.82
2017-12-23T00:57:06.376Z,1030.81
2017-12-23T00:58:15.054Z,1030.77
2017-12-23T00:59:24.261Z,1030.81
2017-12-23T01:00:33.215Z,1030.81
2017-12-23T01:01:42.164Z,1030.81
2017-12-23T01:02:50.908Z,1030.75
2017-12-23T01:04:00.115Z,1030.75
2017-12-23T01:05:08.826Z,1030.73
2017-12-23T01:06:17.764Z,1030.74
2017-12-23T01:07:26.976Z,1030.73
2017-12-23T01:08:36.432Z,1030.67
2017-12-23T01:09:45.636Z,1030.67
2017-12-23T01:10:55.115Z,1030.64
2017-12-23T01:12:04.315Z,1030.63
2017-12-23T01:13:13.523Z,1030.6
2017-12-23T01:14:22.469Z,1030.57
2017-12-23T01:15:31.945Z,1030.55
2017-12-23T01:16:40.902Z,1030.52
2017-12-23T01:17:50.107Z,1030.53
2017-12-23T01:18:58.787Z,1030.59
2017-12-23T01:20:07.737Z,1030.6
2017-12-23T01:21:17.205Z,1030.62
2017-12-23T01:22:26.417Z,1030.71
2017-12-23T01:23:35.628Z,1030.68
2017-12-23T01:24:44.572Z,1030.7
2017-12-23T01:25:53.512Z,1030.69
2017-12-23T01:27:02.199Z,1030.66
2017-12-23T01:28:11.141Z,1030.65
2017-12-23T01:29:20.107Z,1030.61
2017-12-23T01:30:29.047Z,1030.63
2017-12-23T01:31:37.996Z,1030.62
2017-12-23T01:32:46.954Z,1030.65
2017-12-23T01:33:56.159Z,1030.58
2017-12-23T01:35:05.358Z,1030.56
2017-12-23T01:36:14.042Z,1030.56
2017-12-23T01:37:22.984Z,1030.57
2017-12-23T01:38:32.202Z,1030.59
2017-12-23T01:39:41.663Z,1030.61
2017-12-23T01:40:50.947Z,1030.57
2017-12-23T01:41:59.640Z,1030.56
2017-12-23T01:43:08.851Z,1030.55
2017-12-23T01:44:17.543Z,1030.54
2017-12-23T01:45:26.733Z,1030.54
2017-12-23T01:46:35.777Z,1030.52
2017-12-23T01:47:44.723Z,1030.54
2017-12-23T01:48:53.662Z,1030.53
2017-12-23T01:50:02.617Z,1030.47
2017-12-23T01:51:11.301Z,1030.44
2017-12-23T01:52:20.514Z,1030.43
2017-12-23T01:53:29.476Z,1030.42
2017-12-23T01:54:38.418Z,1030.44
2017-12-23T01:55:47.091Z,1030.48
2017-12-23T01:56:56.302Z,1030.43
2017-12-23T01:58:04.996Z,1030.41
2017-12-23T01:59:14.460Z,1030.4
2017-12-23T02:00:23.149Z,1030.38
2017-12-23T02:01:32.119Z,1030.39
2017-12-23T02:02:41.066Z,1030.35
2017-12-23T02:03:50.033Z,1030.31
2017-12-23T02:04:59.251Z,1030.35
2017-12-23T02:06:08.449Z,1030.34
2017-12-23T02:07:17.659Z,1030.36
2017-12-23T02:08:27.118Z,1030.39
2017-12-23T02:09:36.065Z,1030.36
2017-12-23T02:10:45.297Z,1030.36
2017-12-23T02:11:54.263Z,1030.37
2017-12-23T02:13:03.732Z,1030.31
2017-12-23T02:14:12.679Z,1030.3
2017-12-23T02:15:21.882Z,1030.25
2017-12-23T02:16:30.566Z,1030.27
2017-12-23T02:17:39.774Z,1030.26
2017-12-23T02:18:49.239Z,1030.25
2017-12-23T02:19:58.177Z,1030.23
2017-12-23T02:21:07.123Z,1030.19
2017-12-23T02:22:16.583Z,1030.21
2017-12-23T02:23:25.798Z,1030.22
2017-12-23T02:24:34.734Z,1030.21
2017-12-23T02:25:43.706Z,1030.24
2017-12-23T02:26:52.916Z,1030.22
2017-12-23T02:28:02.117Z,1030.23
2017-12-23T02:29:11.310Z,1030.19
2017-12-23T02:30:20.271Z,1030.19
2017-12-23T02:31:29.483Z,1030.17
2017-12-23T02:32:38.724Z,1030.14
2017-12-23T02:33:47.934Z,1030.09
2017-12-23T02:34:57.158Z,1030.1
2017-12-23T02:36:05.840Z,1030.07
2017-12-23T02:37:15.328Z,1030.07
2017-12-23T02:38:24.275Z,1030.01
2017-12-23T02:39:33.493Z,1030.04
2017-12-23T02:40:42.707Z,1029.97
2017-12-23T02:41:51.924Z,1029.99
2017-12-23T02:43:01.149Z,1030.02
2017-12-23T02:44:10.367Z,1029.96
2017-12-23T02:45:19.575Z,1029.96
2017-12-23T02:46:29.048Z,1030.01
2017-12-23T02:47:38.256Z,1029.99
2017-12-23T02:48:47.478Z,1030.04
2017-12-23T02:49:56.954Z,1030
2017-12-23T02:51:05.641Z,1029.97
2017-12-23T02:52:15.397Z,1029.95
2017-12-23T02:53:24.609Z,1029.94
2017-12-23T02:54:33.562Z,1029.9
2017-12-23T02:55:42.786Z,1029.86
2017-12-23T02:56:51.993Z,1029.88
2017-12-23T02:58:01.216Z,1029.85
2017-12-23T02:59:09.908Z,1029.81
2017-12-23T03:00:19.108Z,1029.78
2017-12-23T03:01:27.800Z,1029.74
2017-12-23T03:02:36.746Z,1029.74
2017-12-23T03:03:46.000Z,1029.72
2017-12-23T03:04:54.709Z,1029.73
2017-12-23T03:06:04.178Z,1029.73
2017-12-23T03:07:13.402Z,1029.75
2017-12-23T03:08:22.611Z,1029.75
2017-12-23T03:09:31.352Z,1029.75
2017-12-23T03:10:40.561Z,1029.76
2017-12-23T03:11:49.755Z,1029.74
2017-12-23T03:12:58.975Z,1029.77
2017-12-23T03:14:07.923Z,1029.73
2017-12-23T03:15:17.396Z,1029.77
2017-12-23T03:16:26.082Z,1029.71
2017-12-23T03:17:34.756Z,1029.71
2017-12-23T03:18:43.692Z,1029.71
2017-12-23T03:19:53.158Z,1029.73
2017-12-23T03:21:01.852Z,1029.75
2017-12-23T03:22:10.804Z,1029.7
2017-12-23T03:23:20.009Z,1029.73
2017-12-23T03:24:28.959Z,1029.7
2017-12-23T03:25:37.908Z,1029.74
2017-12-23T03:26:46.877Z,1029.7
2017-12-23T03:27:56.088Z,1029.73
2017-12-23T03:29:05.320Z,1029.68
2017-12-23T03:30:14.283Z,1029.68
2017-12-23T03:31:23.511Z,1029.66
2017-12-23T03:32:32.724Z,1029.68
2017-12-23T03:33:41.670Z,1029.65
2017-12-23T03:34:50.872Z,1029.64
2017-12-23T03:36:00.465Z,1029.62
2017-12-23T03:37:09.955Z,1029.6
2017-12-23T03:38:18.907Z,1029.58
2017-12-23T03:39:27.592Z,1029.57
2017-12-23T03:40:37.062Z,1029.58
2017-12-23T03:41:46.008Z,1029.6
2017-12-23T03:42:55.220Z,1029.61
2017-12-23T03:44:04.182Z,1029.61
2017-12-23T03:45:13.409Z,1029.63
2017-12-23T03:46:23.140Z,1029.63
2017-12-23T03:47:31.835Z,1029.63
2017-12-23T03:48:41.053Z,1029.64
2017-12-23T03:49:50.784Z,1029.62
2017-12-23T03:50:59.749Z,1029.63
2017-12-23T03:52:08.684Z,1029.62
2017-12-23T03:53:17.903Z,1029.6
2017-12-23T03:54:27.102Z,1029.61
2017-12-23T03:55:36.575Z,1029.66
2017-12-23T03:56:46.041Z,1029.64
2017-12-23T03:57:54.985Z,1029.61
2017-12-23T03:59:04.018Z,1029.66
2017-12-23T04:00:13.484Z,1029.61
2017-12-23T04:01:22.701Z,1029.59
2017-12-23T04:02:31.974Z,1029.62
2017-12-23T04:03:40.912Z,1029.57
2017-12-23T04:04:50.114Z,1029.59
2017-12-23T04:05:59.327Z,1029.64
2017-12-23T04:07:08.008Z,1029.6
2017-12-23T04:08:16.690Z,1029.58
2017-12-23T04:09:25.639Z,1029.58
2017-12-23T04:10:34.320Z,1029.62
2017-12-23T04:11:43.006Z,1029.57
2017-12-23T04:12:51.950Z,1029.62
2017-12-23T04:14:00.899Z,1029.64
2017-12-23T04:15:10.106Z,1029.69
2017-12-23T04:16:19.057Z,1029.69
2017-12-23T04:17:27.997Z,1029.72
2017-12-23T04:18:37.208Z,1029.71
2017-12-23T04:19:46.169Z,1029.7
2017-12-23T04:20:55.107Z,1029.75
2017-12-23T04:22:04.337Z,1029.73
2017-12-23T04:23:13.276Z,1029.79
2017-12-23T04:24:21.953Z,1029.78
2017-12-23T04:25:31.150Z,1029.84
2017-12-23T04:26:40.351Z,1029.84
2017-12-23T04:27:49.564Z,1029.86
2017-12-23T04:28:59.035Z,1029.83
2017-12-23T04:30:08.249Z,1029.84
2017-12-23T04:31:17.458Z,1029.84
2017-12-23T04:32:26.141Z,1029.82
2017-12-23T04:33:35.863Z,1029.81
2017-12-23T04:34:44.803Z,1029.81
2017-12-23T04:35:54.271Z,1029.82
2017-12-23T04:37:03.205Z,1029.84
2017-12-23T04:38:12.143Z,1029.78
2017-12-23T04:39:21.726Z,1029.85
2017-12-23T04:40:30.660Z,1029.83
2017-12-23T04:41:39.607Z,1029.85
2017-12-23T04:42:49.057Z,1029.83
2017-12-23T04:43:58.562Z,1029.88
2017-12-23T04:45:07.247Z,1029.87
2017-12-23T04:46:16.719Z,1029.84
2017-12-23T04:47:25.662Z,1029.82
2017-12-23T04:48:34.603Z,1029.81
2017-12-23T04:49:43.830Z,1029.85
2017-12-23T04:50:53.548Z,1029.8
2017-12-23T04:52:02.486Z,1029.81
2017-12-23T04:53:11.692Z,1029.8
2017-12-23T04:54:21.172Z,1029.84
2017-12-23T04:55:30.366Z,1029.89
2017-12-23T04:56:39.397Z,1029.84
2017-12-23T04:57:48.592Z,1029.85
2017-12-23T04:58:58.093Z,1029.85
2017-12-23T05:00:06.796Z,1029.92
2017-12-23T05:01:15.478Z,1029.87
2017-12-23T05:02:24.969Z,1029.93
2017-12-23T05:03:34.443Z,1029.95
2017-12-23T05:04:43.402Z,1029.89
2017-12-23T05:05:52.409Z,1029.85
2017-12-23T05:07:01.117Z,1029.84
2017-12-23T05:08:10.334Z,1029.83
2017-12-23T05:09:19.368Z,1029.82
2017-12-23T05:10:28.837Z,1029.84
2017-12-23T05:11:38.081Z,1029.82
2017-12-23T05:12:47.285Z,1029.83
2017-12-23T05:13:56.595Z,1029.82
2017-12-23T05:15:05.805Z,1029.82
2017-12-23T05:16:14.753Z,1029.85
2017-12-23T05:17:24.225Z,1029.86
2017-12-23T05:18:32.907Z,1029.86
2017-12-23T05:19:41.606Z,1029.87
2017-12-23T05:20:50.562Z,1029.85
2017-12-23T05:21:59.511Z,1029.85
2017-12-23T05:23:08.992Z,1029.87
2017-12-23T05:24:18.461Z,1029.85
2017-12-23T05:25:27.665Z,1029.9
2017-12-23T05:26:36.613Z,1029.82
2017-12-23T05:27:46.103Z,1029.83
2017-12-23T05:28:54.793Z,1029.81
2017-12-23T05:30:03.805Z,1029.82
2017-12-23T05:31:12.864Z,1029.79
2017-12-23T05:32:22.083Z,1029.8
2017-12-23T05:33:30.749Z,1029.75
2017-12-23T05:34:39.430Z,1029.81
2017-12-23T05:35:48.109Z,1029.84
2017-12-23T05:36:56.792Z,1029.83
2017-12-23T05:38:05.471Z,1029.8
2017-12-23T05:39:14.776Z,1029.8
2017-12-23T05:40:23.717Z,1029.84
2017-12-23T05:41:32.921Z,1029.8
2017-12-23T05:42:42.137Z,1029.76
2017-12-23T05:43:51.353Z,1029.77
2017-12-23T05:45:00.029Z,1029.77
2017-12-23T05:46:09.224Z,1029.75
2017-12-23T05:47:17.895Z,1029.7
2017-12-23T05:48:27.362Z,1029.71
2017-12-23T05:49:36.298Z,1029.67
2017-12-23T05:50:44.971Z,1029.66
2017-12-23T05:51:53.936Z,1029.66
2017-12-23T05:53:02.620Z,1029.65
2017-12-23T05:54:11.564Z,1029.65
2017-12-23T05:55:20.326Z,1029.61
2017-12-23T05:56:29.533Z,1029.63
2017-12-23T05:57:38.228Z,1029.62
2017-12-23T05:58:47.448Z,1029.63
2017-12-23T05:59:56.400Z,1029.6
2017-12-23T06:01:05.632Z,1029.61
2017-12-23T06:02:14.609Z,1029.56
2017-12-23T06:03:23.573Z,1029.62
2017-12-23T06:04:32.519Z,1029.58
2017-12-23T06:05:41.727Z,1029.57
2017-12-23T06:06:50.745Z,1029.56
2017-12-23T06:08:00.217Z,1029.59
2017-12-23T06:09:09.701Z,1029.55
2017-12-23T06:10:19.159Z,1029.56
2017-12-23T06:11:28.135Z,1029.5
2017-12-23T06:12:37.338Z,1029.52
2017-12-23T06:13:46.303Z,1029.47
2017-12-23T06:14:55.773Z,1029.42
2017-12-23T06:16:04.721Z,1029.41
2017-12-23T06:17:13.747Z,1029.39
2017-12-23T06:18:22.695Z,1029.41
2017-12-23T06:19:31.390Z,1029.4
2017-12-23T06:20:40.607Z,1029.4
2017-12-23T06:21:49.554Z,1029.43
2017-12-23T06:22:58.771Z,1029.34
2017-12-23T06:24:07.751Z,1029.4
2017-12-23T06:25:16.730Z,1029.35
2017-12-23T06:26:25.931Z,1029.34
2017-12-23T06:27:34.904Z,1029.32
2017-12-23T06:28:43.844Z,1029.33
2017-12-23T06:29:52.797Z,1029.3
2017-12-23T06:31:02.071Z,1029.34
2017-12-23T06:32:11.010Z,1029.31
2017-12-23T06:33:20.226Z,1029.32
2017-12-23T06:34:29.431Z,1029.27
2017-12-23T06:35:38.648Z,1029.3
2017-12-23T06:36:48.110Z,1029.29
2017-12-23T06:37:56.796Z,1029.3
2017-12-23T06:39:06.264Z,1029.3
2017-12-23T06:40:15.296Z,1029.31
2017-12-23T06:41:24.504Z,1029.29
2017-12-23T06:42:33.448Z,1029.27
2017-12-23T06:43:43.172Z,1029.26
2017-12-23T06:44:52.416Z,1029.26
2017-12-23T06:46:01.896Z,1029.24
2017-12-23T06:47:11.109Z,1029.25
2017-12-23T06:48:20.059Z,1029.29
2017-12-23T06:49:29.523Z,1029.3
2017-12-23T06:50:38.562Z,1029.25
2017-12-23T06:51:47.763Z,1029.26
2017-12-23T06:52:56.967Z,1029.29
2017-12-23T06:54:05.913Z,1029.28
2017-12-23T06:55:14.884Z,1029.32
2017-12-23T06:56:23.569Z,1029.28
2017-12-23T06:57:32.783Z,1029.3
2017-12-23T06:58:41.723Z,1029.28
2017-12-23T06:59:51.225Z,1029.28
2017-12-23T07:00:59.950Z,1029.26
2017-12-23T07:02:09.424Z,1029.26
2017-12-23T07:03:18.889Z,1029.31
2017-12-23T07:04:28.359Z,1029.3
2017-12-23T07:05:37.111Z,1029.26
2017-12-23T07:06:46.567Z,1029.25
2017-12-23T07:07:55.775Z,1029.27
2017-12-23T07:09:04.472Z,1029.27
2017-12-23T07:10:13.929Z,1029.18
2017-12-23T07:11:22.611Z,1029.24
2017-12-23T07:12:31.558Z,1029.23
2017-12-23T07:13:41.075Z,1029.22
2017-12-23T07:14:50.292Z,1029.21
2017-12-23T07:15:59.776Z,1029.14
2017-12-23T07:17:09.255Z,1029.16
2017-12-23T07:18:18.457Z,1029.14
2017-12-23T07:19:27.144Z,1029.14
2017-12-23T07:20:35.889Z,1029.18
2017-12-23T07:21:45.094Z,1029.1
2017-12-23T07:22:54.578Z,1029.09
2017-12-23T07:24:03.510Z,1029.08
2017-12-23T07:25:12.185Z,1029.05
2017-12-23T07:26:20.870Z,1029.07
2017-12-23T07:27:30.094Z,1029
2017-12-23T07:28:39.029Z,1029.01
2017-12-23T07:29:47.971Z,1029.07
2017-12-23T07:30:57.169Z,1029.07
2017-12-23T07:32:06.368Z,1029.13
2017-12-23T07:33:15.581Z,1029.14
2017-12-23T07:34:24.511Z,1029.16
2017-12-23T07:35:33.977Z,1029.18
2017-12-23T07:36:43.178Z,1029.22
2017-12-23T07:37:52.380Z,1029.21
2017-12-23T07:39:01.869Z,1029.23
2017-12-23T07:40:10.544Z,1029.28
2017-12-23T07:41:19.229Z,1029.23
2017-12-23T07:42:28.440Z,1029.25
2017-12-23T07:43:38.000Z,1029.24
2017-12-23T07:44:47.229Z,1029.26
2017-12-23T07:45:56.876Z,1029.2
2017-12-23T07:47:06.608Z,1029.24
2017-12-23T07:48:15.834Z,1029.25
2017-12-23T07:49:24.606Z,1029.27
2017-12-23T07:50:34.084Z,1029.23
2017-12-23T07:51:43.286Z,1029.26
2017-12-23T07:52:53.020Z,1029.26
2017-12-23T07:54:02.230Z,1029.26
2017-12-23T07:55:11.691Z,1029.26
2017-12-23T07:56:20.374Z,1029.29
2017-12-23T07:57:29.318Z,1029.27
2017-12-23T07:58:38.529Z,1029.24
2017-12-23T07:59:47.207Z,1029.22
2017-12-23T08:00:56.153Z,1029.2
2017-12-23T08:02:05.887Z,1029.19
2017-12-23T08:03:15.108Z,1029.2
2017-12-23T08:04:24.319Z,1029.26
2017-12-23T08:05:33.014Z,1029.25
2017-12-23T08:06:41.954Z,1029.27
2017-12-23T08:07:51.196Z,1029.25
2017-12-23T08:09:00.726Z,1029.24
2017-12-23T08:10:09.685Z,1029.26
2017-12-23T08:11:18.373Z,1029.29
2017-12-23T08:12:27.587Z,1029.29
2017-12-23T08:13:36.275Z,1029.27
2017-12-23T08:14:45.493Z,1029.25
2017-12-23T08:15:54.988Z,1029.23
2017-12-23T08:17:04.456Z,1029.26
2017-12-23T08:18:13.918Z,1029.3
2017-12-23T08:19:23.190Z,1029.28
2017-12-23T08:20:31.870Z,1029.29
2017-12-23T08:21:41.609Z,1029.31
2017-12-23T08:22:50.561Z,1029.26
2017-12-23T08:23:59.785Z,1029.22
2017-12-23T08:25:09.255Z,1029.26
2017-12-23T08:26:18.206Z,1029.24
2017-12-23T08:27:27.689Z,1029.26
2017-12-23T08:28:36.897Z,1029.23
2017-12-23T08:29:45.836Z,1029.24
2017-12-23T08:30:54.765Z,1029.23
2017-12-23T08:32:03.974Z,1029.21
2017-12-23T08:33:12.922Z,1029.28
2017-12-23T08:34:22.135Z,1029.32
2017-12-23T08:35:31.873Z,1029.27
2017-12-23T08:36:40.824Z,1029.31
2017-12-23T08:37:49.868Z,1029.36
2017-12-23T08:38:58.817Z,1029.4
2017-12-23T08:40:07.760Z,1029.38
2017-12-23T08:41:16.816Z,1029.36
2017-12-23T08:42:25.502Z,1029.35
2017-12-23T08:43:34.721Z,1029.33
2017-12-23T08:44:43.434Z,1029.36
2017-12-23T08:45:52.396Z,1029.35
2017-12-23T08:47:01.907Z,1029.37
2017-12-23T08:48:11.114Z,1029.37
2017-12-23T08:49:20.329Z,1029.35
2017-12-23T08:50:29.024Z,1029.39
2017-12-23T08:51:38.229Z,1029.33
2017-12-23T08:52:47.449Z,1029.38
2017-12-23T08:53:56.439Z,1029.4
2017-12-23T08:55:05.713Z,1029.43
2017-12-23T08:56:14.963Z,1029.43
2017-12-23T08:57:23.645Z,1029.42
2017-12-23T08:58:32.858Z,1029.43
2017-12-23T08:59:41.800Z,1029.49
2017-12-23T09:00:50.757Z,1029.5
2017-12-23T09:01:59.974Z,1029.5
2017-12-23T09:03:09.187Z,1029.5
2017-12-23T09:04:18.917Z,1029.47
2017-12-23T09:05:27.855Z,1029.47
2017-12-23T09:06:36.797Z,1029.48
2017-12-23T09:07:46.526Z,1029.5
2017-12-23T09:08:55.992Z,1029.54
2017-12-23T09:10:04.942Z,1029.53
2017-12-23T09:11:14.690Z,1029.56
2017-12-23T09:12:23.633Z,1029.56
2017-12-23T09:13:32.614Z,1029.53
2017-12-23T09:14:41.315Z,1029.56
2017-12-23T09:15:50.272Z,1029.58
2017-12-23T09:16:59.999Z,1029.62
2017-12-23T09:18:09.227Z,1029.58
2017-12-23T09:19:18.426Z,1029.61
2017-12-23T09:20:28.173Z,1029.6
2017-12-23T09:21:37.391Z,1029.58
2017-12-23T09:22:46.884Z,1029.62
2017-12-23T09:23:56.636Z,1029.6
2017-12-23T09:25:06.140Z,1029.57
2017-12-23T09:26:15.609Z,1029.56
2017-12-23T09:27:24.827Z,1029.57
2017-12-23T09:28:34.050Z,1029.55
2017-12-23T09:29:43.270Z,1029.59
2017-12-23T09:30:52.225Z,1029.56
2017-12-23T09:32:00.978Z,1029.56
2017-12-23T09:33:10.214Z,1029.58
2017-12-23T09:34:19.336Z,1029.56
2017-12-23T09:35:28.299Z,1029.55
2017-12-23T09:36:37.239Z,1029.55
2017-12-23T09:37:46.186Z,1029.57
2017-12-23T09:38:55.150Z,1029.55
2017-12-23T09:40:04.348Z,1029.52
2017-12-23T09:41:13.044Z,1029.5
2017-12-23T09:42:22.293Z,1029.47
2017-12-23T09:43:30.967Z,1029.45
2017-12-23T09:44:40.438Z,1029.45
2017-12-23T09:45:49.389Z,1029.45
2017-12-23T09:46:58.326Z,1029.41
2017-12-23T09:48:07.544Z,1029.43
2017-12-23T09:49:17.025Z,1029.32
2017-12-23T09:50:26.492Z,1029.36
2017-12-23T09:51:35.960Z,1029.33
2017-12-23T09:52:44.920Z,1029.31
2017-12-23T09:53:54.143Z,1029.36
2017-12-23T09:55:03.615Z,1029.33
2017-12-23T09:56:12.830Z,1029.33
2017-12-23T09:57:22.043Z,1029.31
2017-12-23T09:58:30.982Z,1029.33
2017-12-23T09:59:40.200Z,1029.26
2017-12-23T10:00:49.422Z,1029.28
2017-12-23T10:01:58.390Z,1029.27
2017-12-23T10:03:07.080Z,1029.31
2017-12-23T10:04:16.016Z,1029.32
2017-12-23T10:05:24.693Z,1029.33
2017-12-23T10:06:33.649Z,1029.36
2017-12-23T10:07:42.844Z,1029.34
2017-12-23T10:08:51.793Z,1029.36
2017-12-23T10:10:00.747Z,1029.36
2017-12-23T10:11:09.961Z,1029.28
2017-12-23T10:12:19.224Z,1029.33
2017-12-23T10:13:28.958Z,1029.32
2017-12-23T10:14:38.447Z,1029.32
2017-12-23T10:15:47.657Z,1029.31
2017-12-23T10:16:57.133Z,1029.3
2017-12-23T10:18:05.819Z,1029.28
2017-12-23T10:19:14.778Z,1029.28
2017-12-23T10:20:23.979Z,1029.26
2017-12-23T10:21:33.183Z,1029.27
2017-12-23T10:22:42.385Z,1029.22
2017-12-23T10:23:51.618Z,1029.21
2017-12-23T10:25:00.935Z,1029.2
2017-12-23T10:26:10.154Z,1029.2
2017-12-23T10:27:19.434Z,1029.18
2017-12-23T10:28:28.438Z,1029.23
2017-12-23T10:29:38.174Z,1029.2
2017-12-23T10:30:47.898Z,1029.24
2017-12-23T10:31:57.138Z,1029.23
2017-12-23T10:33:06.083Z,1029.23
2017-12-23T10:34:15.560Z,1029.18
2017-12-23T10:35:24.254Z,1029.18
2017-12-23T10:36:33.747Z,1029.2
2017-12-23T10:37:42.699Z,1029.19
2017-12-23T10:38:51.647Z,1029.14
2017-12-23T10:40:00.877Z,1029.14
2017-12-23T10:41:10.090Z,1029.13
2017-12-23T10:42:19.305Z,1029.14
2017-12-23T10:43:28.249Z,1029.13
2017-12-23T10:44:37.446Z,1029.09
2017-12-23T10:45:46.409Z,1029.08
2017-12-23T10:46:55.632Z,1029.03
2017-12-23T10:48:04.850Z,1029.08
2017-12-23T10:49:13.807Z,1029.07
2017-12-23T10:50:23.534Z,1029.04
2017-12-23T10:51:33.009Z,1029.02
2017-12-23T10:52:41.950Z,1028.97
2017-12-23T10:53:51.251Z,1029.01
2017-12-23T10:54:59.961Z,1029.02
2017-12-23T10:56:09.438Z,1028.95
2017-12-23T10:57:18.387Z,1028.94
2017-12-23T10:58:27.594Z,1028.95
2017-12-23T10:59:36.832Z,1028.9
2017-12-23T11:00:45.510Z,1028.94
2017-12-23T11:01:54.723Z,1028.92
2017-12-23T11:03:03.663Z,1028.91
2017-12-23T11:04:13.157Z,1028.9
2017-12-23T11:05:22.369Z,1028.86
2017-12-23T11:06:31.829Z,1028.84
2017-12-23T11:07:40.529Z,1028.81
2017-12-23T11:08:50.023Z,1028.8
2017-12-23T11:09:59.231Z,1028.77
2017-12-23T11:11:08.699Z,1028.8
2017-12-23T11:12:17.644Z,1028.74
2017-12-23T11:13:26.851Z,1028.74
2017-12-23T11:14:35.792Z,1028.69
2017-12-23T11:15:44.494Z,1028.66
2017-12-23T11:16:53.765Z,1028.66
2017-12-23T11:18:02.706Z,1028.61
2017-12-23T11:19:11.395Z,1028.63
2017-12-23T11:20:20.409Z,1028.63
2017-12-23T11:21:29.356Z,1028.63
2017-12-23T11:22:38.037Z,1028.67
2017-12-23T11:23:47.076Z,1028.64
2017-12-23T11:24:56.301Z,1028.66
2017-12-23T11:26:05.502Z,1028.71
2017-12-23T11:27:14.975Z,1028.67
2017-12-23T11:28:24.810Z,1028.69
2017-12-23T11:29:34.031Z,1028.63
2017-12-23T11:30:43.238Z,1028.62
2017-12-23T11:31:52.173Z,1028.65
2017-12-23T11:33:01.631Z,1028.55
2017-12-23T11:34:10.591Z,1028.53
2017-12-23T11:35:19.531Z,1028.53
2017-12-23T11:36:28.799Z,1028.46
2017-12-23T11:37:37.991Z,1028.48
2017-12-23T11:38:46.929Z,1028.52
2017-12-23T11:39:56.386Z,1028.49
2017-12-23T11:41:05.596Z,1028.44
2017-12-23T11:42:14.800Z,1028.46
2017-12-23T11:43:24.259Z,1028.4
2017-12-23T11:44:33.193Z,1028.33
2017-12-23T11:45:42.665Z,1028.34
2017-12-23T11:46:51.609Z,1028.36
2017-12-23T11:48:00.546Z,1028.33
2017-12-23T11:49:09.757Z,1028.31
2017-12-23T11:50:19.495Z,1028.26
2017-12-23T11:51:28.447Z,1028.31
2017-12-23T11:52:37.401Z,1028.38
2017-12-23T11:53:46.348Z,1028.34
2017-12-23T11:54:55.559Z,1028.35
2017-12-23T11:56:04.232Z,1028.29
2017-12-23T11:57:12.913Z,1028.31
2017-12-23T11:58:22.736Z,1028.36
2017-12-23T11:59:31.674Z,1028.36
2017-12-23T12:00:41.174Z,1028.33
2017-12-23T12:01:49.869Z,1028.27
2017-12-23T12:02:58.914Z,1028.28
2017-12-23T12:04:07.875Z,1028.33
2017-12-23T12:05:16.561Z,1028.31
2017-12-23T12:06:25.257Z,1028.31
2017-12-23T12:07:33.947Z,1028.24
2017-12-23T12:08:42.619Z,1028.26
2017-12-23T12:09:51.567Z,1028.31
2017-12-23T12:11:01.041Z,1028.27
2017-12-23T12:12:10.543Z,1028.27
2017-12-23T12:13:19.492Z,1028.27
2017-12-23T12:14:28.428Z,1028.27
2017-12-23T12:15:37.901Z,1028.22
2017-12-23T12:16:46.582Z,1028.22
2017-12-23T12:17:55.544Z,1028.21
2017-12-23T12:19:04.483Z,1028.22
2017-12-23T12:20:13.411Z,1028.24
2017-12-23T12:21:22.881Z,1028.21
2017-12-23T12:22:32.357Z,1028.2
2017-12-23T12:23:42.543Z,1028.2
2017-12-23T12:24:52.265Z,1028.13
2017-12-23T12:26:01.217Z,1028.12
2017-12-23T12:27:10.157Z,1028.14
2017-12-23T12:28:19.105Z,1028.09
2017-12-23T12:29:27.785Z,1028.09
2017-12-23T12:30:36.797Z,1028.08
2017-12-23T12:31:45.469Z,1028.06
2017-12-23T12:32:54.147Z,1027.97
2017-12-23T12:34:03.098Z,1028
2017-12-23T12:35:11.789Z,1028.04
2017-12-23T12:36:20.728Z,1027.99
2017-12-23T12:37:29.937Z,1027.98
2017-12-23T12:38:38.884Z,1028
2017-12-23T12:39:47.558Z,1027.99
2017-12-23T12:40:56.502Z,1027.99
2017-12-23T12:42:05.197Z,1028
2017-12-23T12:43:13.875Z,1028
2017-12-23T12:44:23.604Z,1028.02
2017-12-23T12:45:32.307Z,1028.02
2017-12-23T12:46:41.504Z,1027.9
2017-12-23T12:47:50.184Z,1027.93
2017-12-23T12:48:59.122Z,1027.89
2017-12-23T12:50:07.795Z,1027.94
2017-12-23T12:51:17.533Z,1027.87
2017-12-23T12:52:26.738Z,1027.86
2017-12-23T12:53:35.947Z,1027.85
2017-12-23T12:54:44.888Z,1027.81
2017-12-23T12:55:53.826Z,1027.81
2017-12-23T12:57:02.826Z,1027.77
2017-12-23T12:58:12.027Z,1027.78
2017-12-23T12:59:20.703Z,1027.83
2017-12-23T13:00:29.900Z,1027.72
2017-12-23T13:01:38.839Z,1027.76
2017-12-23T13:02:48.056Z,1027.78
2017-12-23T13:03:56.993Z,1027.8
2017-12-23T13:05:05.926Z,1027.83
2017-12-23T13:06:14.603Z,1027.77
2017-12-23T13:07:23.624Z,1027.8
2017-12-23T13:08:32.829Z,1027.76
2017-12-23T13:09:42.310Z,1027.8
2017-12-23T13:10:51.259Z,1027.78
2017-12-23T13:12:00.456Z,1027.77
2017-12-23T13:13:09.141Z,1027.8
2017-12-23T13:14:18.071Z,1027.79
2017-12-23T13:15:27.014Z,1027.8
2017-12-23T13:16:35.698Z,1027.78
2017-12-23T13:17:44.648Z,1027.75
2017-12-23T13:18:53.326Z,1027.76
2017-12-23T13:20:02.527Z,1027.77
2017-12-23T13:21:11.729Z,1027.84
2017-12-23T13:22:20.404Z,1027.79
2017-12-23T13:23:29.478Z,1027.75
2017-12-23T13:24:38.675Z,1027.79
2017-12-23T13:25:47.613Z,1027.73
2017-12-23T13:26:56.552Z,1027.73
2017-12-23T13:28:05.522Z,1027.75
2017-12-23T13:29:14.204Z,1027.74
2017-12-23T13:30:23.668Z,1027.74
2017-12-23T13:31:32.627Z,1027.75
2017-12-23T13:32:41.310Z,1027.76
2017-12-23T13:33:50.265Z,1027.78
2017-12-23T13:34:59.298Z,1027.76
2017-12-23T13:36:09.204Z,1027.72
2017-12-23T13:37:18.407Z,1027.7
2017-12-23T13:38:27.363Z,1027.7
2017-12-23T13:39:36.047Z,1027.71
2017-12-23T13:40:45.256Z,1027.66
2017-12-23T13:41:54.209Z,1027.71
2017-12-23T13:43:03.148Z,1027.67
2017-12-23T13:44:12.394Z,1027.64
2017-12-23T13:45:21.081Z,1027.68
2017-12-23T13:46:29.769Z,1027.61
2017-12-23T13:47:38.705Z,1027.68
2017-12-23T13:48:47.653Z,1027.66
2017-12-23T13:49:56.336Z,1027.67
2017-12-23T13:51:05.653Z,1027.67
2017-12-23T13:52:14.595Z,1027.7
2017-12-23T13:53:23.551Z,1027.73
2017-12-23T13:54:32.494Z,1027.67
2017-12-23T13:55:41.418Z,1027.7
2017-12-23T13:56:50.880Z,1027.66
2017-12-23T13:57:59.561Z,1027.66
2017-12-23T13:59:08.779Z,1027.67